createdAt,value
2019-05-13T00:00:44.600Z,15.72
2019-05-13T00:03:19.107Z,14.55
2019-05-13T00:05:53.743Z,13.50
2019-05-13T00:08:27.789Z,13.15
2019-05-13T00:11:04.379Z,15.63
2019-05-13T00:13:38.009Z,15.48
2019-05-13T00:16:14.112Z,16.02
2019-05-13T00:18:48.858Z,12.78
2019-05-13T00:21:23.276Z,17.20
2019-05-13T00:23:57.226Z,18.48
2019-05-13T00:26:33.781Z,15.05
2019-05-13T00:29:07.958Z,16.35
2019-05-13T00:31:43.833Z,18.37
2019-05-13T00:34:17.918Z,13.45
2019-05-13T00:37:07.375Z,14.50
2019-05-13T00:39:28.284Z,16.57
2019-05-13T00:42:04.041Z,21.75
2019-05-13T00:44:38.256Z,17.80
2019-05-13T00:47:13.273Z,16.37
2019-05-13T00:49:47.481Z,14.25
2019-05-13T00:52:23.543Z,19.17
2019-05-13T00:54:58.962Z,17.12
2019-05-13T00:57:34.164Z,17.35
2019-05-13T01:00:09.217Z,19.55
2019-05-13T01:02:44.598Z,16.62
2019-05-13T01:05:19.189Z,23.87
2019-05-13T01:07:53.791Z,15.35
2019-05-13T01:10:28.084Z,15.78
2019-05-13T01:13:04.582Z,16.93
2019-05-13T01:15:38.501Z,13.50
2019-05-13T01:18:14.214Z,20.65
2019-05-13T01:20:48.747Z,23.10
2019-05-13T01:23:24.051Z,14.60
2019-05-13T01:25:58.572Z,30.15
2019-05-13T01:28:34.449Z,29.23
2019-05-13T01:31:08.917Z,27.35
2019-05-13T01:33:44.532Z,28.17
2019-05-13T01:36:18.769Z,24.67
2019-05-13T01:38:54.100Z,31.27
2019-05-13T01:41:28.499Z,24.67
2019-05-13T01:44:04.119Z,26.17
2019-05-13T01:46:38.107Z,20.45
2019-05-13T01:49:13.635Z,24.70
2019-05-13T01:51:48.400Z,23.27
2019-05-13T01:54:24.641Z,24.10
2019-05-13T01:56:58.755Z,19.92
2019-05-13T01:59:34.595Z,29.63
2019-05-13T02:02:08.873Z,23.32
2019-05-13T02:04:43.891Z,19.07
2019-05-13T02:07:18.196Z,23.77
2019-05-13T02:09:53.417Z,20.23
2019-05-13T02:12:27.788Z,22.65
2019-05-13T02:15:04.315Z,19.67
2019-05-13T02:17:39.391Z,18.00
2019-05-13T02:20:14.769Z,22.30
2019-05-13T02:22:49.580Z,21.27
2019-05-13T02:25:23.826Z,23.02
2019-05-13T02:27:58.332Z,23.67
2019-05-13T02:30:34.957Z,23.32
2019-05-13T02:33:08.720Z,22.65
2019-05-13T02:35:43.550Z,21.37
2019-05-13T02:38:24.503Z,21.60
2019-05-13T02:40:53.818Z,23.02
2019-05-13T02:43:28.540Z,24.30
2019-05-13T02:46:04.510Z,22.95
2019-05-13T02:48:41.995Z,26.20
2019-05-13T02:51:15.709Z,20.43
2019-05-13T02:53:52.374Z,18.37
2019-05-13T02:56:26.047Z,24.12
2019-05-13T02:59:03.459Z,25.27
2019-05-13T03:01:36.501Z,33.48
2019-05-13T03:04:13.144Z,46.25
2019-05-13T03:06:46.913Z,55.15
2019-05-13T03:09:22.960Z,49.58
2019-05-13T03:11:57.917Z,38.53
2019-05-13T03:14:32.482Z,46.40
2019-05-13T03:17:26.375Z,42.43
2019-05-13T03:22:32.815Z,46.90
2019-05-13T03:25:06.995Z,53.80
2019-05-13T03:27:42.856Z,52.53
2019-05-13T03:30:17.549Z,69.07
2019-05-13T03:32:59.770Z,62.38
2019-05-13T03:35:28.991Z,127.97
2019-05-13T03:38:04.006Z,134.80
2019-05-13T03:40:42.208Z,129.32
2019-05-13T03:43:16.254Z,111.12
2019-05-13T03:45:53.408Z,122.98
2019-05-13T03:48:28.040Z,114.42
2019-05-13T03:51:02.808Z,121.13
2019-05-13T03:53:37.124Z,120.95
2019-05-13T03:56:12.876Z,89.42
2019-05-13T03:58:47.093Z,102.53
2019-05-13T04:01:22.534Z,81.30
2019-05-13T04:03:56.808Z,93.95
2019-05-13T04:06:32.345Z,84.97
2019-05-13T04:09:22.200Z,73.57
2019-05-13T04:11:43.451Z,89.50
2019-05-13T04:14:17.716Z,73.70
2019-05-13T04:16:53.472Z,79.82
2019-05-13T04:19:27.853Z,75.08
2019-05-13T04:22:02.484Z,64.65
2019-05-13T04:24:36.795Z,63.15
2019-05-13T04:27:13.155Z,71.02
2019-05-13T04:29:46.978Z,64.53
2019-05-13T04:32:22.952Z,62.75
2019-05-13T04:34:57.291Z,58.63
2019-05-13T04:37:32.859Z,51.20
2019-05-13T04:40:08.778Z,46.83
2019-05-13T04:42:42.969Z,52.17
2019-05-13T04:45:17.954Z,51.15
2019-05-13T04:47:53.002Z,53.68
2019-05-13T04:50:28.733Z,54.30
2019-05-13T04:53:03.484Z,65.22
2019-05-13T04:55:37.890Z,71.67
2019-05-13T04:58:13.136Z,67.35
2019-05-13T05:05:03.835Z,76.15
2019-05-13T05:08:12.161Z,79.82
2019-05-13T05:11:21.986Z,91.08
2019-05-13T05:14:08.334Z,72.03
2019-05-13T05:17:08.502Z,79.62
2019-05-13T05:20:22.912Z,83.52
2019-05-13T05:23:54.845Z,83.47
2019-05-13T05:27:03.392Z,87.95
2019-05-13T05:30:11.353Z,93.37
2019-05-13T05:32:58.705Z,85.40
2019-05-13T05:36:11.827Z,78.07
2019-05-13T05:39:24.925Z,84.47
2019-05-13T05:44:33.187Z,66.30
2019-05-13T05:47:07.536Z,82.62
2019-05-13T05:49:44.006Z,83.00
2019-05-13T05:52:21.265Z,73.15
2019-05-13T05:54:56.497Z,86.10
2019-05-13T05:57:32.644Z,75.92
2019-05-13T06:00:07.640Z,69.47
2019-05-13T06:02:44.834Z,68.83
2019-05-13T06:05:21.237Z,218.50
2019-05-13T06:07:54.703Z,684.73
2019-05-13T06:10:42.620Z,330.05
2019-05-13T06:13:05.647Z,229.65
2019-05-13T06:15:42.021Z,247.40
2019-05-13T06:18:16.179Z,213.22
2019-05-13T06:20:51.250Z,176.32
2019-05-13T06:23:25.762Z,166.68
2019-05-13T06:26:01.877Z,159.78
2019-05-13T06:28:36.418Z,166.12
2019-05-13T06:31:12.424Z,138.75
2019-05-13T06:33:46.748Z,123.70
2019-05-13T06:36:22.096Z,136.70
2019-05-13T06:38:56.631Z,115.08
2019-05-13T06:41:32.343Z,102.72
2019-05-13T06:44:07.152Z,112.40
2019-05-13T06:46:42.433Z,94.77
2019-05-13T06:49:16.793Z,105.05
2019-05-13T06:51:52.735Z,84.40
2019-05-13T06:54:27.263Z,73.80
2019-05-13T06:57:04.679Z,72.55
2019-05-13T06:59:37.708Z,75.62
2019-05-13T07:02:12.557Z,71.60
2019-05-13T07:04:46.903Z,69.12
2019-05-13T07:07:21.874Z,68.75
2019-05-13T07:09:56.100Z,59.93
2019-05-13T07:12:31.241Z,70.12
2019-05-13T07:15:06.025Z,68.67
2019-05-13T07:17:41.621Z,74.15
2019-05-13T07:20:16.416Z,67.27
2019-05-13T07:22:53.133Z,67.37
2019-05-13T07:25:26.945Z,63.80
2019-05-13T07:28:02.254Z,68.52
2019-05-13T07:30:46.266Z,63.63
2019-05-13T07:33:21.373Z,72.75
2019-05-13T07:35:58.572Z,70.45
2019-05-13T07:38:33.627Z,66.97
2019-05-13T07:41:12.045Z,63.05
2019-05-13T07:43:46.000Z,73.02
2019-05-13T07:46:21.796Z,59.48
2019-05-13T07:48:56.743Z,51.85
2019-05-13T07:51:31.846Z,67.97
2019-05-13T07:54:06.159Z,56.40
2019-05-13T07:56:42.578Z,50.75
2019-05-13T07:59:17.692Z,55.48
2019-05-13T08:01:52.326Z,51.28
2019-05-13T08:04:26.912Z,47.60
2019-05-13T08:07:02.123Z,48.85
2019-05-13T08:09:36.785Z,46.88
2019-05-13T08:12:14.386Z,48.38
2019-05-13T08:14:47.295Z,42.58
2019-05-13T08:17:22.533Z,42.73
2019-05-13T08:19:57.003Z,44.13
2019-05-13T08:22:32.071Z,39.95
2019-05-13T08:25:06.906Z,37.42
2019-05-13T08:27:45.416Z,40.80
2019-05-13T08:30:22.560Z,45.25
2019-05-13T08:32:55.927Z,28.60
2019-05-13T08:35:31.493Z,37.60
2019-05-13T08:38:05.899Z,33.48
2019-05-13T08:40:42.188Z,26.90
2019-05-13T08:43:17.301Z,35.90
2019-05-13T08:45:55.118Z,32.70
2019-05-13T08:48:27.802Z,35.35
2019-05-13T08:51:03.144Z,32.58
2019-05-13T08:53:37.517Z,32.93
2019-05-13T08:56:12.353Z,27.50
2019-05-13T08:58:46.783Z,32.63
2019-05-13T09:01:22.734Z,28.15
2019-05-13T09:03:57.044Z,36.17
2019-05-13T09:06:31.779Z,27.87
2019-05-13T09:09:07.263Z,36.25
2019-05-13T09:11:42.227Z,28.80
2019-05-13T09:14:16.609Z,26.25
2019-05-13T09:16:52.512Z,35.38
2019-05-13T09:19:27.064Z,30.80
2019-05-13T09:22:03.041Z,28.83
2019-05-13T09:24:37.994Z,25.68
2019-05-13T09:27:12.600Z,25.23
2019-05-13T09:29:48.238Z,30.02
2019-05-13T09:32:22.655Z,25.20
2019-05-13T09:34:56.850Z,27.75
2019-05-13T09:37:31.794Z,21.02
2019-05-13T09:40:06.534Z,23.50
2019-05-13T09:42:49.015Z,24.18
2019-05-13T09:45:21.441Z,31.40
2019-05-13T09:47:56.174Z,28.27
2019-05-13T09:50:35.369Z,21.77
2019-05-13T09:53:06.435Z,19.45
2019-05-13T09:55:41.532Z,31.55
2019-05-13T09:58:16.038Z,31.05
2019-05-13T10:00:52.508Z,29.23
2019-05-13T10:06:03.115Z,22.05
2019-05-13T10:08:37.631Z,35.30
2019-05-13T10:11:12.456Z,21.55
2019-05-13T10:13:47.016Z,23.70
2019-05-13T10:16:22.181Z,31.77
2019-05-13T10:18:56.724Z,28.83
2019-05-13T10:21:32.632Z,30.32
2019-05-13T10:24:07.483Z,55.58
2019-05-13T10:26:42.906Z,41.18
2019-05-13T10:29:18.016Z,50.67
2019-05-13T10:31:52.649Z,43.15
2019-05-13T10:34:26.976Z,42.00
2019-05-13T10:37:02.578Z,31.23
2019-05-13T10:39:37.638Z,37.98
2019-05-13T10:42:12.371Z,40.00
2019-05-13T10:44:46.849Z,44.25
2019-05-13T10:47:22.778Z,33.13
2019-05-13T10:49:57.243Z,29.90
2019-05-13T10:52:32.188Z,27.50
2019-05-13T10:55:06.769Z,32.48
2019-05-13T10:57:42.318Z,26.75
2019-05-13T11:00:16.959Z,31.02
2019-05-13T11:02:51.304Z,21.35
2019-05-13T11:05:25.801Z,25.77
2019-05-13T11:08:02.031Z,24.65
2019-05-13T11:10:36.684Z,21.75
2019-05-13T11:13:11.937Z,22.40
2019-05-13T11:15:46.343Z,27.58
2019-05-13T11:18:23.635Z,22.65
2019-05-13T11:20:57.036Z,18.45
2019-05-13T11:23:32.235Z,28.83
2019-05-13T11:26:06.787Z,26.35
2019-05-13T11:28:42.860Z,22.15
2019-05-13T11:31:16.736Z,26.82
2019-05-13T11:33:52.055Z,18.42
2019-05-13T11:36:26.518Z,25.97
2019-05-13T11:39:03.027Z,24.27
2019-05-13T11:41:36.904Z,26.80
2019-05-13T11:44:16.153Z,26.40
2019-05-13T11:46:47.346Z,24.77
2019-05-13T11:49:21.886Z,20.02
2019-05-13T11:51:56.222Z,26.65
2019-05-13T11:54:30.642Z,26.95
2019-05-13T11:57:06.493Z,22.62
2019-05-13T11:59:42.985Z,22.67
2019-05-13T12:02:16.528Z,23.25
2019-05-13T12:04:53.566Z,30.72
2019-05-13T12:07:26.843Z,21.68
2019-05-13T12:10:02.622Z,27.15
2019-05-13T12:12:37.402Z,20.48
2019-05-13T12:15:44.573Z,27.73
2019-05-13T12:17:48.553Z,22.98
2019-05-13T12:20:24.342Z,22.95
2019-05-13T12:22:58.527Z,20.40
2019-05-13T12:25:33.524Z,29.15
2019-05-13T12:28:07.999Z,26.25
2019-05-13T12:30:42.426Z,24.80
2019-05-13T12:33:16.508Z,22.07
2019-05-13T12:35:53.039Z,25.70
2019-05-13T12:38:26.822Z,22.13
2019-05-13T12:41:04.942Z,22.30
2019-05-13T12:43:37.205Z,23.05
2019-05-13T12:46:12.484Z,28.75
2019-05-13T12:48:46.853Z,22.25
2019-05-13T12:51:22.696Z,22.65
2019-05-13T12:53:56.816Z,23.42
2019-05-13T12:56:33.317Z,23.18
2019-05-13T12:59:07.106Z,23.57
2019-05-13T13:01:41.621Z,25.35
2019-05-13T13:04:16.072Z,26.07
2019-05-13T13:06:52.951Z,19.57
2019-05-13T13:09:26.217Z,42.35
2019-05-13T13:12:00.530Z,38.55
2019-05-13T13:14:39.416Z,36.73
2019-05-13T13:17:12.893Z,40.78
2019-05-13T13:19:46.751Z,36.88
2019-05-13T13:22:25.223Z,48.00
2019-05-13T13:24:57.686Z,43.50
2019-05-13T13:28:01.953Z,70.78
2019-05-13T13:30:08.892Z,60.78
2019-05-13T13:32:45.375Z,64.95
2019-05-13T13:35:21.248Z,55.78
2019-05-13T13:37:54.834Z,49.77
2019-05-13T13:40:34.069Z,39.25
2019-05-13T13:43:05.563Z,54.35
2019-05-13T13:48:16.117Z,42.27
2019-05-13T13:50:55.759Z,41.50
2019-05-13T13:53:26.445Z,45.73
2019-05-13T13:56:02.302Z,41.28
2019-05-13T13:58:36.865Z,44.33
2019-05-13T14:01:18.198Z,44.42
2019-05-13T14:03:47.239Z,46.63
2019-05-13T14:06:25.463Z,21.50
2019-05-13T14:07:22.275Z,39.67
2019-05-13T14:08:57.672Z,38.90
2019-05-13T14:11:33.119Z,35.33
2019-05-13T14:14:07.609Z,44.88
2019-05-13T14:16:43.543Z,52.17
2019-05-13T14:19:18.123Z,58.42
2019-05-13T14:21:52.804Z,53.15
2019-05-13T14:24:28.093Z,71.28
2019-05-13T14:27:03.035Z,65.35
2019-05-13T14:29:41.902Z,59.80
2019-05-13T14:32:13.538Z,59.30
2019-05-13T14:34:47.801Z,52.70
2019-05-13T14:37:22.470Z,58.45
2019-05-13T14:39:56.369Z,62.75
2019-05-13T14:42:32.262Z,60.40
2019-05-13T14:45:06.227Z,59.18
2019-05-13T14:47:40.491Z,55.10
2019-05-13T14:50:14.716Z,54.98
2019-05-13T14:52:48.674Z,49.03
2019-05-13T14:55:23.102Z,54.67
2019-05-13T14:57:57.493Z,46.42
2019-05-13T15:00:32.761Z,50.43
2019-05-13T15:03:06.991Z,53.60
2019-05-13T15:05:42.966Z,67.47
2019-05-13T15:08:18.083Z,62.20
2019-05-13T15:10:53.429Z,68.72
2019-05-13T15:13:27.846Z,76.97
2019-05-13T15:16:02.037Z,65.78
2019-05-13T15:18:35.969Z,71.45
2019-05-13T15:21:12.106Z,69.42
2019-05-13T15:23:45.991Z,60.12
2019-05-13T15:26:22.203Z,67.97
2019-05-13T15:28:56.403Z,62.70
2019-05-13T15:31:31.623Z,70.40
2019-05-13T15:34:06.065Z,61.83
2019-05-13T15:36:41.929Z,61.80
2019-05-13T15:39:16.567Z,62.03
2019-05-13T15:41:52.331Z,62.15
2019-05-13T15:44:26.847Z,59.95
2019-05-13T15:47:03.903Z,67.65
2019-05-13T15:49:37.477Z,61.05
2019-05-13T15:52:12.063Z,59.42
2019-05-13T15:54:46.605Z,54.65
2019-05-13T15:57:21.417Z,53.23
2019-05-13T15:59:56.146Z,46.83
2019-05-13T16:02:31.344Z,45.78
2019-05-13T16:05:05.797Z,58.10
2019-05-13T16:07:41.820Z,48.35
2019-05-13T16:10:16.265Z,49.83
2019-05-13T16:12:51.965Z,46.42
2019-05-13T16:15:26.718Z,42.58
2019-05-13T16:18:02.576Z,37.85
2019-05-13T16:20:37.364Z,46.05
2019-05-13T16:23:12.369Z,39.08
2019-05-13T16:25:47.148Z,36.95
2019-05-13T16:28:21.349Z,37.00
2019-05-13T16:30:55.605Z,37.98
2019-05-13T16:33:31.383Z,35.33
2019-05-13T16:36:06.093Z,41.75
2019-05-13T16:38:41.690Z,40.50
2019-05-13T16:41:16.419Z,32.03
2019-05-13T16:43:50.646Z,33.65
2019-05-13T16:46:24.925Z,31.70
2019-05-13T16:49:01.257Z,28.35
2019-05-13T16:51:35.301Z,30.65
2019-05-13T16:54:09.643Z,24.70
2019-05-13T16:56:44.118Z,27.35
2019-05-13T16:59:21.000Z,24.80
2019-05-13T17:01:54.576Z,22.93
2019-05-13T17:04:35.595Z,21.93
2019-05-13T17:07:10.099Z,22.40
2019-05-13T17:09:44.426Z,21.05
2019-05-13T17:12:21.120Z,16.10
2019-05-13T17:15:35.481Z,18.07
2019-05-13T17:17:41.200Z,22.75
2019-05-13T17:20:18.257Z,21.68
2019-05-13T17:22:54.499Z,21.00
2019-05-13T17:25:30.993Z,17.07
2019-05-13T17:28:21.964Z,18.05
2019-05-13T17:30:56.567Z,31.15
2019-05-13T17:33:31.968Z,19.80
2019-05-13T17:36:07.388Z,16.52
2019-05-13T17:38:41.693Z,19.90
2019-05-13T17:41:15.983Z,13.72
2019-05-13T17:43:51.846Z,17.05
2019-05-13T17:46:26.041Z,14.68
2019-05-13T17:49:01.034Z,15.10
2019-05-13T17:51:35.182Z,12.53
2019-05-13T17:54:11.602Z,17.20
2019-05-13T17:56:45.252Z,13.70
2019-05-13T17:59:19.232Z,10.05
2019-05-13T18:01:53.380Z,11.70
2019-05-13T18:04:27.526Z,18.40
2019-05-13T18:07:01.932Z,15.28
2019-05-13T18:09:36.241Z,15.23
2019-05-13T18:12:11.535Z,13.48
2019-05-13T18:14:45.942Z,10.80
2019-05-13T18:17:21.568Z,12.40
2019-05-13T18:19:57.283Z,13.35
2019-05-13T18:22:31.449Z,11.38
2019-05-13T18:25:05.739Z,15.35
2019-05-13T18:27:43.151Z,19.77
2019-05-13T18:30:16.020Z,14.18
2019-05-13T18:32:51.782Z,12.10
2019-05-13T18:35:26.349Z,17.20
2019-05-13T18:38:01.479Z,9.95
2019-05-13T18:40:35.791Z,18.27
2019-05-13T18:43:09.800Z,19.00
2019-05-13T18:45:44.044Z,14.18
2019-05-13T18:48:18.320Z,17.12
2019-05-13T18:50:52.566Z,16.35
2019-05-13T18:53:26.888Z,8.78
2019-05-13T18:56:01.972Z,14.18
2019-05-13T18:58:36.301Z,11.33
2019-05-13T19:01:11.215Z,13.35
2019-05-13T19:03:45.700Z,12.30
2019-05-13T19:06:22.092Z,13.88
2019-05-13T19:08:56.772Z,10.45
2019-05-13T19:11:31.717Z,12.90
2019-05-13T19:14:06.075Z,8.55
2019-05-13T19:16:42.231Z,8.63
2019-05-13T19:19:19.878Z,12.00
2019-05-13T19:21:52.443Z,10.75
2019-05-13T19:24:26.636Z,7.40
2019-05-13T19:27:01.756Z,8.45
2019-05-13T19:29:35.884Z,8.48
2019-05-13T19:32:12.200Z,10.58
2019-05-13T19:34:45.958Z,10.98
2019-05-13T19:37:22.417Z,11.38
2019-05-13T19:39:56.396Z,10.75
2019-05-13T19:42:31.378Z,11.00
2019-05-13T19:45:05.878Z,10.63
2019-05-13T19:47:41.857Z,9.85
2019-05-13T19:50:16.388Z,9.80
2019-05-13T19:52:51.885Z,12.73
2019-05-13T19:55:26.177Z,9.68
2019-05-13T19:58:01.849Z,8.68
2019-05-13T20:00:37.576Z,9.00
2019-05-13T20:03:12.033Z,9.45
2019-05-13T20:05:46.273Z,14.35
2019-05-13T20:08:21.200Z,13.15
2019-05-13T20:10:55.667Z,9.58
2019-05-13T20:13:29.726Z,19.55
2019-05-13T20:16:04.866Z,17.15
2019-05-13T20:18:41.336Z,13.88
2019-05-13T20:21:15.520Z,11.25
2019-05-13T20:23:51.754Z,14.23
2019-05-13T20:26:25.429Z,12.82
2019-05-13T20:29:01.648Z,13.78
2019-05-13T20:31:35.673Z,12.73
2019-05-13T20:34:12.070Z,10.82
2019-05-13T20:36:46.211Z,16.42
2019-05-13T20:39:22.431Z,12.15
2019-05-13T20:41:56.310Z,13.30
2019-05-13T20:44:31.268Z,16.05
2019-05-13T20:47:05.854Z,13.30
2019-05-13T20:49:41.705Z,10.93
2019-05-13T20:52:16.216Z,11.70
2019-05-13T20:54:51.116Z,10.58
2019-05-13T20:57:26.099Z,10.38
2019-05-13T21:00:02.320Z,11.97
2019-05-13T21:02:36.354Z,10.88
2019-05-13T21:05:12.091Z,15.10
2019-05-13T21:07:46.600Z,17.07
2019-05-13T21:10:21.359Z,9.80
2019-05-13T21:12:55.665Z,9.25
2019-05-13T21:15:31.720Z,9.80
2019-05-13T21:18:05.694Z,11.33
2019-05-13T21:20:40.998Z,10.25
2019-05-13T21:23:15.258Z,9.88
2019-05-13T21:25:51.099Z,11.40
2019-05-13T21:28:24.849Z,12.30
2019-05-13T21:30:58.937Z,9.13
2019-05-13T21:33:33.029Z,14.30
2019-05-13T21:36:07.296Z,9.65
2019-05-13T21:38:41.336Z,9.30
2019-05-13T21:41:17.571Z,10.95
2019-05-13T21:43:52.125Z,10.98
2019-05-13T21:46:26.977Z,9.33
2019-05-13T21:49:02.593Z,11.50
2019-05-13T21:51:36.812Z,11.88
2019-05-13T21:54:11.749Z,11.83
2019-05-13T21:56:46.634Z,12.88
2019-05-13T21:59:23.200Z,11.38
2019-05-13T22:01:56.899Z,11.03
2019-05-13T22:04:31.447Z,11.78
2019-05-13T22:07:05.578Z,12.13
2019-05-13T22:09:41.720Z,13.35
2019-05-13T22:12:15.726Z,11.68
2019-05-13T22:14:51.759Z,11.50
2019-05-13T22:17:25.879Z,11.15
2019-05-13T22:20:01.849Z,12.82
2019-05-13T22:22:36.435Z,10.20
2019-05-13T22:25:12.200Z,9.78
2019-05-13T22:27:46.364Z,11.12
2019-05-13T22:30:20.723Z,12.25
2019-05-13T22:32:54.878Z,15.85
2019-05-13T22:35:29.455Z,22.77
2019-05-13T22:38:03.673Z,16.93
2019-05-13T22:40:38.477Z,25.72
2019-05-13T22:43:12.748Z,17.20
2019-05-13T22:45:47.144Z,15.58
2019-05-13T22:48:22.224Z,15.90
2019-05-13T22:50:56.407Z,13.38
2019-05-13T22:53:31.784Z,15.65
2019-05-13T22:56:06.332Z,14.20
2019-05-13T22:58:41.239Z,14.43
2019-05-13T23:01:15.286Z,12.90
2019-05-13T23:03:51.380Z,12.07
2019-05-13T23:06:25.549Z,14.70
2019-05-13T23:09:01.731Z,12.05
2019-05-13T23:11:36.519Z,14.60
2019-05-13T23:14:13.360Z,10.03
2019-05-13T23:16:46.361Z,12.25
2019-05-13T23:19:21.687Z,12.15
2019-05-13T23:21:55.942Z,11.97
2019-05-13T23:24:31.150Z,12.73
2019-05-13T23:27:05.886Z,12.05
2019-05-13T23:29:41.236Z,12.53
2019-05-13T23:32:15.462Z,11.78
2019-05-13T23:34:51.222Z,13.40
2019-05-13T23:37:25.984Z,11.85
2019-05-13T23:40:01.434Z,11.90
2019-05-13T23:42:36.202Z,12.25
2019-05-13T23:45:11.469Z,12.40
2019-05-13T23:47:46.094Z,13.40
2019-05-13T23:50:21.593Z,12.07
2019-05-13T23:52:55.984Z,13.55
2019-05-13T23:55:32.171Z,13.28
2019-05-13T23:58:06.279Z,12.37
